Secor, Illinois
Current Conditions -  °F | °C
As of 9:56 PM on Wednesday 22 Oct 2014 (Local Time) from KBMI Reporting Station
Clear Clear  
Wind Chill: 41°   Ceiling: Unl
Heat Index: 44°   Visibility: 10mi
Dew Point: 35°   Wind: 5mph
Humidity: 71%   Direction: 140°SE
Pressure: 30.27"   Gusts: NA
Location:  40.74°N, 89.14°W
Report Text: KBMI 230256Z 14004KT 10SM CLR 07/02 A3027 RMK AO2 53007 T00660016 SLP258
Loading
Personal Weather Stations






























Interactive Weather Map
Tropical Storm Tracking
New forecast layout! Learn more

10-Day Weather Forecast

Advertisements
Track Severe Weather on mobile